x

La Perouse Bank (46206) Wave Buoy

12:00am - Tue 4th Aug 2015 All times are PDT. -7 hours from GMT.

  • Sig Wave height 8.5ft
  • Peak Period 8s
  • Wind
    22mph, 27mph gusts
  • Sea Temp 56°f
  • 空気 Temp 58°f
  • Sea Pressure 1014.2mb
  • La Perouse Bank
  • La Perouse Bank

More Historic Weather Station data

Upgrade to MSW Pro to gain access to the past 30 days of data for over 8000 Wavebouys and Weather Stations around the globe.

Join Pro

Comparision Forecast

View Surf forecast
   
Tue 08/04 12:00am 8.5ft 8s 22 27 mph 1014.2mb 56f 58f
Mon 08/03 11:00pm 8ft 8s 25 31 mph 1014mb 56f 59f
10:00pm  -   -  25
mph
1014.1mb - 59f
9:00pm 8ft 7s 22 27 mph 1013.9mb 56f 59f
8:00pm 7ft 7s 22 27 mph 1013.8mb 56f 59f
7:00pm 6.5ft 6s 27 34 mph 1013.4mb 56f 59f
6:00pm 6ft 6s 22 27 mph 1013.9mb 57f 59f
5:00pm 5.5ft 6s 18 22 mph 1014.1mb 57f 59f
4:00pm 4.5ft 6s 18 20 mph 1014.3mb 57f 59f
3:00pm 3.5ft 5s 16 20 mph 1014.4mb 57f 59f
2:00pm 3.5ft 5s 13 18 mph 1014.2mb 57f 59f
1:00pm 3.5ft 5s 11 13 mph 1014.4mb 56f 59f
12:00pm 3.5ft 5s 11 13 mph 1014.4mb 56f 59f
11:00am 3.5ft 5s 13 18 mph 1014.2mb 56f 58f
10:00am 3.5ft 5s 18 20 mph 1014mb 56f 59f
9:00am 3.5ft 5s 18 22 mph 1013.8mb 56f 58f
8:00am 3.5ft 5s 16 18 mph 1013.5mb 56f 59f
7:00am 4ft 5s 16 20 mph 1013.1mb 56f 59f
6:00am 4.5ft 5s 18 20 mph 1012.8mb 56f 59f
5:00am 3.5ft 5s 18 22 mph 1012.7mb 56f 59f
4:00am 4ft 6s 16 18 mph 1012.7mb 56f 59f
3:00am 4ft 6s 20 25 mph 1012.3mb 56f 59f
2:00am 4.5ft 6s 18 22 mph 1012.7mb 56f 59f
1:00am 4.5ft 6s 20 25 mph 1013mb 56f 59f
12:00am 4.5ft 6s 20 22 mph 1013.2mb 56f 59f
Sun 08/02 11:00pm 4.5ft 6s 18 20 mph 1013.6mb 56f 59f
10:00pm 4.5ft 6s 18 20 mph 1013.9mb 56f 59f
9:00pm 4.5ft 6s 18 20 mph 1014mb 56f 59f
8:00pm 5ft 6s 20 22 mph 1014mb 56f 59f
7:00pm 5ft 6s 20 25 mph 1013.8mb 57f 59f
6:00pm 5ft 6s 22 27 mph 1013.9mb 57f 60f
5:00pm 5ft 7s 20 25 mph 1014.4mb 57f 60f
4:00pm 5ft 7s 20 25 mph 1014.5mb 57f 59f
3:00pm 5ft 7s 18 22 mph 1014.7mb 58f 59f
2:00pm 4.5ft 7s 16 20 mph 1014.7mb 58f 59f
1:00pm 5ft 6s 18 20 mph 1014.8mb 58f 58f
12:00pm 5ft 7s 13 16 mph 1014.9mb 58f 58f
11:00am 5.5ft 6s 13 18 mph 1015mb 57f 58f
10:00am 5ft 7s 16 20 mph 1015.2mb 57f 58f
9:00am 5ft 7s 16 18 mph 1015.3mb 57f 58f
8:00am 5ft 7s 16 18 mph 1014.7mb 57f 58f
7:00am 4.5ft 7s 16 18 mph 1014.3mb 57f 59f
6:00am 5ft 7s 13 16 mph 1013.9mb 57f 59f
5:00am 5ft 8s 11 13 mph 1013.6mb 58f 58f
4:00am 5ft 7s 11 13 mph 1013.4mb 57f 58f
3:00am 5ft 7s 13 18 mph 1013mb 56f 59f
2:00am 6ft 7s 18 20 mph 1013mb 56f 58f
1:00am 6ft 7s 13 18 mph 1013.3mb 56f 58f
12:00am 6ft 7s 20 25 mph 1013.4mb 56f 59f
Sat 08/01 11:00pm 6ft 6s 20 27 mph 1014.1mb 56f 59f
10:00pm 5ft 6s 20 25 mph 1014.7mb 57f 59f
9:00pm 5.5ft 7s 20 27 mph 1015.1mb 57f 59f
8:00pm 5ft 7s 22 27 mph 1015.1mb 57f 59f
7:00pm 5.5ft 6s 22 27 mph 1015.3mb 58f 60f
6:00pm 5ft 6s 20 25 mph 1015.9mb 58f 60f
5:00pm 5ft 6s 22 27 mph 1016.1mb 58f 60f
4:00pm 5.5ft 5s 22 27 mph 1016.1mb 58f 60f
3:00pm 5ft 6s 18 22 mph 1016.7mb 58f 60f
2:00pm 5ft 6s 18 20 mph 1017mb 58f 60f
1:00pm 5.5ft 7s 16 20 mph 1017.1mb 58f 59f
12:00pm 5.5ft 6s 11 16 mph 1017.4mb 58f 59f
11:00am 5ft 8s 9 13 mph 1017.3mb 58f 59f
10:00am 5.5ft 7s 11 13 mph 1017.5mb 58f 59f
9:00am 5ft 7s 11 13 mph 1017.4mb 57f 60f
8:00am 5ft 8s 13 18 mph 1017.2mb 58f 60f
7:00am 5ft 7s 13 16 mph 1017.1mb 57f 60f
6:00am 5ft 7s 16 18 mph 1016.4mb 58f 60f
5:00am 5ft 7s 18 20 mph 1016.2mb 58f 60f
4:00am 5ft 7s 16 18 mph 1016.1mb 57f 59f
3:00am 5.5ft 7s 16 18 mph 1016mb 57f 60f
2:00am 5.5ft 7s 18 22 mph 1016.2mb 57f 60f
1:00am 6ft 7s 20 25 mph 1016.3mb 57f 60f
12:00am 6ft 6s 18 22 mph 1016.6mb 57f 60f
Fri 07/31 11:00pm 6ft 6s 18 20 mph 1016.9mb 57f 60f
10:00pm 5ft 6s 18 22 mph 1016.9mb 57f 60f
9:00pm 5ft 15s 22 27 mph 1016.7mb 57f 60f
8:00pm 4.5ft 14s 20 22 mph 1017mb 58f 60f
7:00pm 4ft 15s 18 22 mph 1017.4mb 58f 61f
6:00pm  -   -  18
mph
- - 61f
5:00pm 4.5ft 15s 16 18 mph 1018.5mb 60f 60f
3:00pm 4.5ft 14s 11 13 mph 1019.5mb 59f 60f
2:00pm 4.5ft 8s 9 11 mph 1019.7mb 60f 60f
1:00pm 4.5ft 15s 7 9 mph 1019.8mb 60f 60f
12:00pm 4.5ft 14s 4 7 mph 1019.7mb 59f 60f
11:00am 4.5ft 15s 4
mph
1019.8mb 59f 59f
10:00am 4.5ft 8s  -  2 mph 1019.8mb 58f 57f
9:00am 5ft 8s 2
mph
1019.7mb 58f 58f